createdAt,value
2018-07-19T00:01:19.146Z,89.60
2018-07-19T00:03:53.016Z,89.70
2018-07-19T00:06:26.914Z,90.60
2018-07-19T00:09:00.779Z,91.40
2018-07-19T00:11:35.364Z,91.90
2018-07-19T00:14:09.185Z,91.90
2018-07-19T00:16:43.746Z,93.10
2018-07-19T00:19:17.591Z,93.00
2018-07-19T00:21:51.276Z,93.10
2018-07-19T00:24:24.978Z,93.70
2018-07-19T00:26:58.701Z,93.20
2018-07-19T00:29:32.484Z,93.40
2018-07-19T00:32:06.227Z,94.00
2018-07-19T00:34:40.029Z,94.00
2018-07-19T00:37:14.655Z,94.30
2018-07-19T00:39:48.503Z,94.30
2018-07-19T00:42:23.078Z,95.00
2018-07-19T00:44:57.722Z,94.70
2018-07-19T00:47:31.530Z,94.80
2018-07-19T00:50:05.368Z,95.20
2018-07-19T00:52:39.960Z,95.80
2018-07-19T00:55:13.692Z,95.80
2018-07-19T00:57:48.256Z,95.70
2018-07-19T01:00:22.174Z,95.70
2018-07-19T01:02:55.864Z,96.00
2018-07-19T01:05:29.747Z,96.30
2018-07-19T01:08:03.442Z,96.70
2018-07-19T01:10:37.249Z,97.50
2018-07-19T01:13:11.066Z,97.60
2018-07-19T01:15:45.531Z,98.10
2018-07-19T01:18:19.366Z,98.10
2018-07-19T01:20:53.204Z,98.30
2018-07-19T01:23:26.971Z,98.50
2018-07-19T01:26:00.759Z,98.60
2018-07-19T01:28:34.631Z,98.80
2018-07-19T01:31:08.381Z,99.00
2018-07-19T01:33:42.231Z,99.50
2018-07-19T01:36:16.981Z,99.70
2018-07-19T01:38:50.783Z,99.70
2018-07-19T01:41:24.509Z,99.40
2018-07-19T01:43:58.263Z,99.90
2018-07-19T01:46:32.004Z,99.90
2018-07-19T01:49:06.663Z,99.90
2018-07-19T01:51:40.571Z,99.90
2018-07-19T01:54:14.307Z,99.90
2018-07-19T01:56:48.063Z,99.90
2018-07-19T01:59:21.847Z,99.90
2018-07-19T02:01:55.687Z,99.90
2018-07-19T02:04:30.275Z,99.90
2018-07-19T02:07:03.987Z,99.90
2018-07-19T02:09:37.867Z,99.90
2018-07-19T02:12:12.444Z,99.90
2018-07-19T02:14:46.219Z,99.90
2018-07-19T02:17:20.890Z,99.90
2018-07-19T02:19:54.749Z,99.90
2018-07-19T02:22:28.635Z,99.90
2018-07-19T02:25:02.442Z,99.90
2018-07-19T02:27:36.348Z,99.90
2018-07-19T02:30:10.821Z,99.90
2018-07-19T02:32:44.622Z,99.90
2018-07-19T02:35:18.371Z,99.90
2018-07-19T02:37:52.195Z,99.90
2018-07-19T02:40:25.983Z,99.90
2018-07-19T02:42:59.700Z,99.90
2018-07-19T02:45:34.168Z,99.90
2018-07-19T02:48:07.836Z,99.90
2018-07-19T02:50:41.660Z,99.90
2018-07-19T02:53:16.077Z,99.90
2018-07-19T02:55:50.747Z,99.90
2018-07-19T02:58:24.559Z,99.90
2018-07-19T03:00:58.418Z,99.90
2018-07-19T03:03:33.051Z,99.90
2018-07-19T03:06:06.857Z,99.90
2018-07-19T03:08:40.624Z,99.90
2018-07-19T03:11:14.469Z,99.90
2018-07-19T03:13:49.130Z,99.90
2018-07-19T03:16:23.027Z,99.90
2018-07-19T03:18:56.874Z,99.90
2018-07-19T03:21:31.425Z,99.90
2018-07-19T03:24:05.248Z,99.90
2018-07-19T03:26:39.767Z,99.90
2018-07-19T03:29:14.220Z,99.90
2018-07-19T03:31:47.936Z,99.90
2018-07-19T03:34:22.539Z,99.90
2018-07-19T03:36:57.126Z,99.90
2018-07-19T03:39:30.999Z,99.90
2018-07-19T03:42:05.590Z,99.90
2018-07-19T03:44:40.201Z,99.90
2018-07-19T03:47:14.685Z,99.90
2018-07-19T03:49:48.609Z,99.90
2018-07-19T03:52:22.370Z,99.90
2018-07-19T03:54:56.204Z,99.90
2018-07-19T03:57:30.753Z,99.90
2018-07-19T04:00:05.407Z,99.90
2018-07-19T04:02:40.019Z,99.90
2018-07-19T04:05:13.771Z,99.90
2018-07-19T04:07:47.625Z,99.90
2018-07-19T04:10:21.447Z,99.90
2018-07-19T04:12:55.333Z,99.90
2018-07-19T04:15:29.085Z,99.90
2018-07-19T04:18:02.906Z,99.90
2018-07-19T04:20:37.460Z,99.90
2018-07-19T04:23:12.004Z,99.90
2018-07-19T04:25:45.731Z,99.90
2018-07-19T04:28:19.551Z,99.90
2018-07-19T04:30:53.243Z,99.90
2018-07-19T04:33:27.047Z,99.90
2018-07-19T04:36:00.827Z,99.90
2018-07-19T04:38:34.683Z,99.90
2018-07-19T04:41:08.452Z,99.90
2018-07-19T04:43:42.350Z,99.90
2018-07-19T04:46:16.806Z,99.90
2018-07-19T04:48:50.632Z,99.90
2018-07-19T04:51:25.316Z,99.90
2018-07-19T04:53:59.219Z,99.90
2018-07-19T04:56:33.351Z,99.90
2018-07-19T04:59:07.073Z,99.90
2018-07-19T05:01:40.876Z,99.90
2018-07-19T05:04:15.372Z,99.90
2018-07-19T05:06:49.220Z,99.90
2018-07-19T05:09:23.874Z,99.90
2018-07-19T05:11:58.420Z,99.90
2018-07-19T05:14:32.191Z,99.90
2018-07-19T05:17:06.143Z,99.90
2018-07-19T05:19:39.943Z,99.90
2018-07-19T05:22:13.829Z,99.90
2018-07-19T05:24:47.632Z,99.90
2018-07-19T05:27:21.308Z,99.90
2018-07-19T05:29:56.635Z,99.90
2018-07-19T05:32:30.370Z,99.90
2018-07-19T05:35:04.416Z,99.90
2018-07-19T05:37:38.229Z,99.90
2018-07-19T05:40:12.170Z,99.90
2018-07-19T05:42:45.818Z,99.90
2018-07-19T05:45:19.600Z,99.90
2018-07-19T05:47:53.359Z,99.90
2018-07-19T05:50:27.842Z,99.90
2018-07-19T05:53:01.934Z,99.90
2018-07-19T05:55:36.520Z,99.90
2018-07-19T05:58:10.242Z,99.90
2018-07-19T06:00:44.747Z,99.90
2018-07-19T06:03:19.466Z,99.90
2018-07-19T06:05:54.108Z,99.90
2018-07-19T06:08:28.556Z,99.90
2018-07-19T06:11:02.376Z,99.90
2018-07-19T06:13:36.124Z,99.90
2018-07-19T06:16:12.443Z,99.90
2018-07-19T06:18:46.134Z,99.90
2018-07-19T06:21:19.912Z,99.90
2018-07-19T06:23:54.475Z,99.90
2018-07-19T06:26:29.833Z,99.90
2018-07-19T06:29:03.706Z,99.90
2018-07-19T06:31:37.534Z,99.90
2018-07-19T06:34:11.226Z,99.90
2018-07-19T06:36:44.975Z,99.90
2018-07-19T06:39:19.241Z,99.90
2018-07-19T06:41:53.176Z,99.90
2018-07-19T06:44:27.209Z,99.90
2018-07-19T06:47:01.073Z,99.90
2018-07-19T06:49:35.802Z,99.90
2018-07-19T06:52:09.642Z,99.90
2018-07-19T06:54:43.350Z,99.90
2018-07-19T06:57:17.062Z,99.90
2018-07-19T06:59:51.510Z,99.90
2018-07-19T07:02:26.232Z,99.90
2018-07-19T07:05:00.043Z,99.90
2018-07-19T07:07:33.971Z,99.90
2018-07-19T07:10:09.572Z,99.90
2018-07-19T07:12:43.408Z,99.90
2018-07-19T07:15:17.809Z,99.90
2018-07-19T07:17:52.456Z,99.90
2018-07-19T07:20:26.923Z,99.10
2018-07-19T07:23:00.691Z,99.10
2018-07-19T07:25:35.290Z,99.00
2018-07-19T07:28:09.825Z,99.20
2018-07-19T07:30:43.625Z,99.20
2018-07-19T07:33:18.246Z,98.50
2018-07-19T07:35:52.033Z,98.50
2018-07-19T07:38:25.761Z,98.00
2018-07-19T07:40:59.648Z,97.80
2018-07-19T07:43:34.283Z,96.80
2018-07-19T07:46:08.148Z,96.70
2018-07-19T07:48:41.856Z,96.10
2018-07-19T07:51:15.663Z,95.10
2018-07-19T07:53:49.582Z,94.90
2018-07-19T07:56:23.315Z,94.50
2018-07-19T07:58:57.113Z,95.80
2018-07-19T08:01:30.867Z,95.00
2018-07-19T08:04:05.356Z,94.90
2018-07-19T08:06:39.999Z,95.40
2018-07-19T08:09:14.471Z,94.10
2018-07-19T08:11:48.310Z,93.80
2018-07-19T08:14:22.114Z,93.00
2018-07-19T08:16:55.903Z,93.10
2018-07-19T08:19:29.716Z,93.90
2018-07-19T08:22:03.532Z,91.70
2018-07-19T08:24:38.115Z,67.70
2018-07-19T08:27:11.964Z,67.60
2018-07-19T08:29:45.729Z,58.70
2018-07-19T08:32:19.589Z,56.20
2018-07-19T08:34:53.220Z,53.50
2018-07-19T08:37:27.099Z,51.00
2018-07-19T08:40:00.872Z,49.50
2018-07-19T08:42:34.794Z,47.90
2018-07-19T08:45:09.379Z,46.10
2018-07-19T08:47:55.949Z,46.00
2018-07-19T08:50:29.640Z,45.10
2018-07-19T08:53:03.384Z,44.40
2018-07-19T08:55:37.933Z,42.70
2018-07-19T08:58:13.901Z,42.70
2018-07-19T09:00:47.816Z,42.70
2018-07-19T09:03:22.357Z,39.90
2018-07-19T09:05:56.567Z,39.90
2018-07-19T09:08:30.299Z,38.10
2018-07-19T09:11:04.024Z,36.40
2018-07-19T09:13:37.801Z,37.00
2018-07-19T09:16:12.279Z,39.20
2018-07-19T09:18:46.234Z,39.20
2018-07-19T09:21:20.093Z,38.80
2018-07-19T09:23:54.540Z,35.50
2018-07-19T09:26:28.280Z,35.30
2018-07-19T09:29:02.888Z,35.10
2018-07-19T09:31:36.729Z,35.10
2018-07-19T09:34:10.481Z,35.80
2018-07-19T09:36:44.161Z,34.70
2018-07-19T09:39:18.716Z,34.70
2018-07-19T09:41:54.711Z,34.70
2018-07-19T09:44:32.160Z,33.90
2018-07-19T09:47:12.278Z,35.00
2018-07-19T09:49:49.447Z,34.20
2018-07-19T09:52:25.730Z,34.70
2018-07-19T09:55:03.311Z,34.80
2018-07-19T09:57:39.617Z,34.30
2018-07-19T10:00:16.651Z,34.00
2018-07-19T10:02:51.981Z,34.40
2018-07-19T10:05:28.784Z,34.20
2018-07-19T10:08:04.875Z,34.20
2018-07-19T10:10:42.333Z,35.20
2018-07-19T10:13:18.386Z,34.70
2018-07-19T10:15:58.748Z,32.80
2018-07-19T10:18:38.189Z,33.20
2018-07-19T10:21:15.372Z,32.20
2018-07-19T10:23:54.607Z,32.00
2018-07-19T10:26:34.877Z,32.00
2018-07-19T10:29:08.639Z,31.20
2018-07-19T10:31:42.340Z,31.70
2018-07-19T10:34:16.302Z,31.60
2018-07-19T10:36:50.028Z,31.60
2018-07-19T10:39:23.813Z,31.80
2018-07-19T10:41:58.426Z,33.50
2018-07-19T10:44:32.888Z,32.50
2018-07-19T10:47:06.576Z,32.50
2018-07-19T10:49:40.368Z,31.80
2018-07-19T10:52:14.187Z,31.30
2018-07-19T10:54:48.077Z,31.70
2018-07-19T10:57:21.894Z,32.90
2018-07-19T10:59:56.499Z,32.80
2018-07-19T11:02:30.221Z,32.90
2018-07-19T11:05:03.943Z,33.20
2018-07-19T11:07:38.059Z,33.20
2018-07-19T11:10:11.840Z,32.60
2018-07-19T11:12:46.360Z,31.30
2018-07-19T11:15:20.212Z,31.30
2018-07-19T11:17:54.093Z,31.20
2018-07-19T11:20:27.908Z,30.80
2018-07-19T11:23:01.724Z,31.00
2018-07-19T11:25:35.460Z,31.80
2018-07-19T11:28:09.280Z,31.60
2018-07-19T11:30:43.695Z,30.10
2018-07-19T11:33:17.517Z,30.10
2018-07-19T11:35:51.320Z,30.30
2018-07-19T11:38:24.988Z,30.40
2018-07-19T11:40:59.420Z,29.80
2018-07-19T11:43:33.759Z,29.80
2018-07-19T11:46:07.494Z,30.10
2018-07-19T11:48:41.347Z,30.60
2018-07-19T11:51:15.008Z,31.40
2018-07-19T11:53:48.787Z,31.70
2018-07-19T11:56:22.664Z,32.90
2018-07-19T11:58:56.373Z,33.10
2018-07-19T12:01:30.077Z,33.80
2018-07-19T12:04:03.905Z,33.50
2018-07-19T12:06:39.186Z,33.10
2018-07-19T12:09:13.784Z,33.20
2018-07-19T12:11:47.601Z,33.20
2018-07-19T12:14:21.450Z,33.10
2018-07-19T12:16:55.171Z,32.90
2018-07-19T12:19:28.883Z,33.40
2018-07-19T12:22:02.592Z,32.60
2018-07-19T12:24:36.407Z,33.10
2018-07-19T12:27:11.826Z,33.90
2018-07-19T12:29:45.562Z,33.80
2018-07-19T12:32:19.388Z,33.80
2018-07-19T12:34:53.219Z,33.90
2018-07-19T12:37:27.824Z,33.40
2018-07-19T12:40:01.535Z,33.30
2018-07-19T12:42:35.304Z,33.30
2018-07-19T12:45:09.219Z,33.10
2018-07-19T12:47:43.743Z,32.80
2018-07-19T12:50:17.555Z,32.80
2018-07-19T12:52:51.441Z,33.60
2018-07-19T12:55:25.286Z,33.80
2018-07-19T12:57:58.957Z,33.80
2018-07-19T13:00:32.731Z,34.10
2018-07-19T13:03:07.307Z,33.10
2018-07-19T13:05:41.131Z,33.10
2018-07-19T13:08:14.976Z,33.50
2018-07-19T13:10:48.620Z,33.90
2018-07-19T13:13:22.345Z,33.90
2018-07-19T13:15:56.079Z,34.20
2018-07-19T13:18:29.983Z,34.30
2018-07-19T13:21:04.530Z,34.50
2018-07-19T13:23:38.415Z,34.50
2018-07-19T13:26:11.980Z,34.40
2018-07-19T13:28:45.787Z,34.80
2018-07-19T13:31:20.300Z,35.00
2018-07-19T13:33:54.139Z,35.00
2018-07-19T13:36:28.907Z,34.50
2018-07-19T13:39:02.656Z,34.50
2018-07-19T13:41:36.477Z,34.20
2018-07-19T13:44:10.377Z,33.90
2018-07-19T13:46:44.078Z,33.70
2018-07-19T13:49:18.780Z,33.60
2018-07-19T13:51:53.754Z,33.90
2018-07-19T13:54:27.500Z,33.60
2018-07-19T13:57:01.391Z,33.40
2018-07-19T13:59:35.163Z,33.40
2018-07-19T14:02:09.024Z,33.20
2018-07-19T14:04:42.912Z,33.10
2018-07-19T14:07:16.692Z,33.40
2018-07-19T14:09:50.823Z,33.90
2018-07-19T14:12:24.561Z,33.30
2018-07-19T14:14:58.420Z,33.20
2018-07-19T14:17:32.377Z,32.90
2018-07-19T14:20:05.971Z,32.80
2018-07-19T14:22:39.713Z,32.80
2018-07-19T14:25:14.419Z,33.00
2018-07-19T14:27:48.232Z,32.90
2018-07-19T14:30:22.875Z,33.40
2018-07-19T14:32:56.652Z,32.70
2018-07-19T14:35:31.301Z,32.60
2018-07-19T14:38:05.232Z,32.60
2018-07-19T14:40:39.787Z,32.80
2018-07-19T14:43:13.534Z,32.60
2018-07-19T14:45:47.329Z,32.70
2018-07-19T14:48:21.192Z,32.40
2018-07-19T14:50:56.044Z,32.20
2018-07-19T14:53:30.496Z,32.20
2018-07-19T14:56:04.165Z,32.30
2018-07-19T14:58:37.813Z,31.90
2018-07-19T15:01:11.647Z,31.70
2018-07-19T15:03:45.506Z,31.90
2018-07-19T15:06:19.231Z,32.00
2018-07-19T15:08:53.055Z,32.10
2018-07-19T15:11:26.934Z,32.20
2018-07-19T15:14:00.640Z,32.10
2018-07-19T15:16:37.305Z,32.00
2018-07-19T15:19:11.479Z,32.00
2018-07-19T15:21:45.437Z,32.20
2018-07-19T15:24:20.601Z,32.60
2018-07-19T15:26:55.520Z,32.60
2018-07-19T15:29:29.104Z,33.60
2018-07-19T15:32:03.000Z,32.20
2018-07-19T15:34:37.005Z,32.20
2018-07-19T15:37:10.618Z,32.50
2018-07-19T15:39:44.815Z,33.30
2018-07-19T15:42:18.837Z,33.70
2018-07-19T15:44:53.488Z,34.10
2018-07-19T15:47:27.140Z,35.10
2018-07-19T15:50:01.042Z,34.50
2018-07-19T15:52:35.132Z,34.30
2018-07-19T15:55:09.651Z,34.80
2018-07-19T15:57:43.421Z,34.80
2018-07-19T16:00:18.235Z,35.20
2018-07-19T16:02:54.287Z,35.10
2018-07-19T16:05:27.955Z,35.10
2018-07-19T16:08:01.741Z,34.80
2018-07-19T16:10:35.564Z,35.20
2018-07-19T16:13:09.435Z,35.00
2018-07-19T16:15:43.215Z,35.00
2018-07-19T16:18:16.931Z,35.00
2018-07-19T16:20:50.833Z,34.90
2018-07-19T16:23:25.301Z,35.40
2018-07-19T16:25:59.041Z,35.40
2018-07-19T16:28:33.506Z,35.10
2018-07-19T16:31:07.231Z,35.10
2018-07-19T16:33:41.653Z,34.90
2018-07-19T16:36:15.451Z,35.00
2018-07-19T16:38:49.170Z,35.10
2018-07-19T16:41:23.671Z,35.10
2018-07-19T16:43:57.457Z,35.10
2018-07-19T16:46:31.236Z,35.30
2018-07-19T16:49:05.010Z,35.30
2018-07-19T16:51:39.621Z,34.80
2018-07-19T16:54:13.324Z,34.80
2018-07-19T16:56:47.040Z,35.10
2018-07-19T16:59:20.828Z,34.70
2018-07-19T17:01:54.700Z,34.80
2018-07-19T17:04:28.488Z,35.00
2018-07-19T17:07:02.216Z,34.90
2018-07-19T17:09:36.672Z,35.10
2018-07-19T17:12:11.240Z,35.50
2018-07-19T17:14:45.041Z,35.30
2018-07-19T17:17:18.835Z,35.10
2018-07-19T17:19:52.641Z,35.10
2018-07-19T17:22:26.497Z,35.10
2018-07-19T17:25:00.287Z,35.20
2018-07-19T17:27:34.050Z,35.50
2018-07-19T17:30:07.830Z,35.40
2018-07-19T17:32:41.598Z,35.30
2018-07-19T17:35:15.379Z,35.60
2018-07-19T17:37:49.915Z,35.90
2018-07-19T17:40:23.786Z,35.80
2018-07-19T17:42:57.705Z,35.60
2018-07-19T17:45:31.482Z,35.90
2018-07-19T17:48:05.345Z,35.80
2018-07-19T17:50:38.986Z,35.80
2018-07-19T17:53:12.800Z,35.60
2018-07-19T17:55:46.614Z,35.80
2018-07-19T17:58:20.460Z,35.90
2018-07-19T18:00:54.270Z,35.80
2018-07-19T18:03:28.013Z,36.00
2018-07-19T18:06:01.865Z,36.00
2018-07-19T18:08:35.634Z,36.00
2018-07-19T18:11:10.201Z,36.00
2018-07-19T18:13:43.999Z,36.00
2018-07-19T18:16:17.832Z,36.10
2018-07-19T18:18:51.577Z,36.10
2018-07-19T18:21:25.265Z,36.10
2018-07-19T18:23:59.172Z,36.30
2018-07-19T18:26:33.676Z,36.30
2018-07-19T18:29:07.493Z,36.30
2018-07-19T18:31:41.120Z,36.20
2018-07-19T18:34:15.009Z,36.40
2018-07-19T18:36:48.693Z,36.40
2018-07-19T18:39:22.326Z,36.20
2018-07-19T18:41:56.214Z,36.30
2018-07-19T18:44:30.726Z,36.40
2018-07-19T18:47:04.401Z,36.40
2018-07-19T18:49:38.191Z,36.90
2018-07-19T18:52:12.865Z,37.00
2018-07-19T18:54:46.679Z,36.60
2018-07-19T18:57:20.557Z,36.80
2018-07-19T18:59:54.317Z,37.00
2018-07-19T19:02:28.964Z,37.60
2018-07-19T19:05:02.754Z,37.50
2018-07-19T19:07:36.586Z,37.80
2018-07-19T19:10:11.040Z,37.80
2018-07-19T19:12:44.949Z,37.80
2018-07-19T19:15:19.079Z,38.40
2018-07-19T19:17:52.874Z,38.60
2018-07-19T19:20:26.766Z,38.60
2018-07-19T19:23:00.620Z,39.20
2018-07-19T19:25:35.167Z,41.20
2018-07-19T19:28:09.787Z,42.10
2018-07-19T19:30:43.699Z,42.00
2018-07-19T19:33:17.487Z,42.60
2018-07-19T19:35:52.641Z,42.90
2018-07-19T19:38:26.293Z,43.20
2018-07-19T19:40:59.891Z,43.60
2018-07-19T19:43:34.887Z,44.30
2018-07-19T19:46:08.684Z,44.30
2018-07-19T19:48:42.564Z,44.70
2018-07-19T19:51:16.390Z,45.00
2018-07-19T19:53:50.193Z,45.00
2018-07-19T19:56:24.721Z,45.60
2018-07-19T19:58:58.492Z,45.60
2018-07-19T20:01:32.304Z,45.20
2018-07-19T20:04:06.160Z,45.80
2018-07-19T20:06:40.026Z,45.80
2018-07-19T20:09:13.825Z,45.70
2018-07-19T20:11:47.506Z,46.50
2018-07-19T20:14:21.303Z,46.00
2018-07-19T20:16:55.200Z,45.90
2018-07-19T20:19:29.774Z,46.90
2018-07-19T20:22:03.616Z,46.90
2018-07-19T20:24:37.382Z,46.60
2018-07-19T20:27:11.167Z,46.40
2018-07-19T20:29:45.037Z,46.60
2018-07-19T20:32:18.963Z,46.40
2018-07-19T20:34:52.684Z,46.90
2018-07-19T20:37:27.140Z,47.50
2018-07-19T20:40:00.799Z,47.30
2018-07-19T20:42:34.540Z,47.50
2018-07-19T20:45:08.350Z,47.70
2018-07-19T20:47:42.259Z,48.10
2018-07-19T20:50:16.900Z,48.40
2018-07-19T20:52:50.731Z,48.40
2018-07-19T20:55:24.468Z,48.90
2018-07-19T20:57:58.345Z,47.50
2018-07-19T21:00:32.903Z,47.80
2018-07-19T21:03:06.706Z,47.80
2018-07-19T21:05:41.029Z,49.50
2018-07-19T21:08:14.830Z,49.40
2018-07-19T21:10:49.359Z,50.80
2018-07-19T21:13:23.097Z,50.80
2018-07-19T21:15:57.576Z,51.60
2018-07-19T21:18:31.441Z,51.60
2018-07-19T21:21:05.260Z,52.20
2018-07-19T21:23:38.940Z,52.40
2018-07-19T21:26:12.842Z,53.10
2018-07-19T21:28:46.567Z,53.60
2018-07-19T21:31:20.327Z,54.10
2018-07-19T21:33:54.131Z,54.70
2018-07-19T21:36:27.963Z,55.00
2018-07-19T21:39:01.655Z,55.00
2018-07-19T21:41:35.529Z,55.50
2018-07-19T21:44:09.397Z,56.20
2018-07-19T21:46:43.088Z,56.70
2018-07-19T21:49:16.963Z,57.90
2018-07-19T21:51:50.773Z,57.90
2018-07-19T21:54:25.450Z,57.60
2018-07-19T21:56:59.129Z,57.60
2018-07-19T21:59:32.964Z,57.50
2018-07-19T22:02:06.816Z,58.20
2018-07-19T22:04:40.638Z,57.80
2018-07-19T22:07:14.497Z,58.60
2018-07-19T22:09:48.972Z,58.90
2018-07-19T22:12:22.676Z,58.90
2018-07-19T22:14:56.486Z,59.10
2018-07-19T22:17:31.046Z,60.00
2018-07-19T22:20:04.839Z,59.90
2018-07-19T22:22:38.659Z,60.10
2018-07-19T22:25:13.143Z,62.00
2018-07-19T22:27:46.984Z,61.90
2018-07-19T22:30:20.795Z,63.30
2018-07-19T22:32:54.600Z,62.90
2018-07-19T22:35:28.351Z,63.70
2018-07-19T22:38:02.876Z,64.90
2018-07-19T22:40:36.667Z,64.90
2018-07-19T22:43:11.186Z,66.50
2018-07-19T22:45:45.633Z,67.70
2018-07-19T22:48:20.117Z,66.90
2018-07-19T22:50:53.797Z,66.80
2018-07-19T22:53:28.252Z,67.80
2018-07-19T22:56:02.912Z,68.20
2018-07-19T22:58:37.296Z,68.20
2018-07-19T23:01:11.099Z,68.20
2018-07-19T23:03:44.952Z,68.70
2018-07-19T23:06:18.577Z,70.10
2018-07-19T23:08:52.306Z,71.50
2018-07-19T23:11:26.086Z,72.20
2018-07-19T23:13:59.994Z,73.00
2018-07-19T23:16:33.767Z,73.30
2018-07-19T23:19:07.635Z,73.90
2018-07-19T23:21:41.515Z,75.50
2018-07-19T23:24:15.978Z,80.10
2018-07-19T23:26:49.824Z,79.70
2018-07-19T23:29:23.475Z,81.80
2018-07-19T23:31:57.268Z,83.30
2018-07-19T23:34:31.075Z,84.20
2018-07-19T23:37:04.794Z,84.50
2018-07-19T23:39:38.590Z,85.30
2018-07-19T23:42:12.194Z,86.60
2018-07-19T23:44:45.974Z,87.60
2018-07-19T23:47:19.639Z,88.90
2018-07-19T23:49:53.448Z,88.10
2018-07-19T23:52:27.928Z,89.00
2018-07-19T23:55:02.513Z,89.80
2018-07-19T23:57:36.083Z,89.80
